sensor_id;sensor_type;location;lat;lon;timestamp;P1;durP1;ratioP1;P2;durP2;ratioP2
50012;SDS011;35901;48.694;9.476;2023-02-10T00:03:31;59.90;;;30.17;;
50012;SDS011;35901;48.694;9.476;2023-02-10T00:05:58;54.73;;;28.43;;
50012;SDS011;35901;48.694;9.476;2023-02-10T00:08:24;55.50;;;29.93;;
50012;SDS011;35901;48.694;9.476;2023-02-10T00:10:50;57.73;;;30.63;;
50012;SDS011;35901;48.694;9.476;2023-02-10T00:13:16;58.57;;;30.90;;
50012;SDS011;35901;48.694;9.476;2023-02-10T00:15:41;68.70;;;35.13;;
50012;SDS011;35901;48.694;9.476;2023-02-10T00:18:07;70.40;;;34.67;;
50012;SDS011;35901;48.694;9.476;2023-02-10T00:20:33;78.03;;;36.77;;
50012;SDS011;35901;48.694;9.476;2023-02-10T00:22:58;68.37;;;32.53;;
50012;SDS011;35901;48.694;9.476;2023-02-10T00:25:24;86.77;;;39.77;;
50012;SDS011;35901;48.694;9.476;2023-02-10T00:27:50;77.07;;;36.17;;
50012;SDS011;35901;48.694;9.476;2023-02-10T00:30:16;80.67;;;37.63;;
50012;SDS011;35901;48.694;9.476;2023-02-10T00:32:42;83.63;;;37.30;;
50012;SDS011;35901;48.694;9.476;2023-02-10T00:35:07;77.80;;;37.13;;
50012;SDS011;35901;48.694;9.476;2023-02-10T00:37:33;80.13;;;38.00;;
50012;SDS011;35901;48.694;9.476;2023-02-10T00:39:59;84.00;;;37.57;;
50012;SDS011;35901;48.694;9.476;2023-02-10T00:42:25;83.23;;;36.37;;
50012;SDS011;35901;48.694;9.476;2023-02-10T00:44:51;78.90;;;35.03;;
50012;SDS011;35901;48.694;9.476;2023-02-10T00:47:19;70.20;;;33.73;;
50012;SDS011;35901;48.694;9.476;2023-02-10T00:49:44;83.90;;;34.23;;
50012;SDS011;35901;48.694;9.476;2023-02-10T00:52:10;83.27;;;36.27;;
50012;SDS011;35901;48.694;9.476;2023-02-10T00:54:35;81.57;;;35.90;;
50012;SDS011;35901;48.694;9.476;2023-02-10T00:57:01;73.47;;;32.87;;
50012;SDS011;35901;48.694;9.476;2023-02-10T00:59:27;72.73;;;34.57;;
50012;SDS011;35901;48.694;9.476;2023-02-10T01:01:53;71.03;;;32.87;;
50012;SDS011;35901;48.694;9.476;2023-02-10T01:04:19;78.10;;;35.53;;
50012;SDS011;35901;48.694;9.476;2023-02-10T01:06:45;78.07;;;33.20;;
50012;SDS011;35901;48.694;9.476;2023-02-10T01:09:11;78.07;;;34.60;;
50012;SDS011;35901;48.694;9.476;2023-02-10T01:11:37;74.20;;;33.87;;
50012;SDS011;35901;48.694;9.476;2023-02-10T01:14:02;70.90;;;32.83;;
50012;SDS011;35901;48.694;9.476;2023-02-10T01:16:28;73.73;;;33.20;;
50012;SDS011;35901;48.694;9.476;2023-02-10T01:18:54;74.70;;;33.33;;
50012;SDS011;35901;48.694;9.476;2023-02-10T01:21:20;81.47;;;36.87;;
50012;SDS011;35901;48.694;9.476;2023-02-10T01:23:47;83.07;;;37.40;;
50012;SDS011;35901;48.694;9.476;2023-02-10T01:26:13;84.10;;;37.20;;
50012;SDS011;35901;48.694;9.476;2023-02-10T01:28:40;86.23;;;37.37;;
50012;SDS011;35901;48.694;9.476;2023-02-10T01:31:07;80.23;;;37.90;;
50012;SDS011;35901;48.694;9.476;2023-02-10T01:33:35;83.87;;;36.10;;
50012;SDS011;35901;48.694;9.476;2023-02-10T01:36:05;71.33;;;34.00;;
50012;SDS011;35901;48.694;9.476;2023-02-10T01:38:33;79.03;;;33.50;;
50012;SDS011;35901;48.694;9.476;2023-02-10T01:40:58;82.03;;;34.83;;
50012;SDS011;35901;48.694;9.476;2023-02-10T01:43:24;76.97;;;34.73;;
50012;SDS011;35901;48.694;9.476;2023-02-10T01:45:55;85.30;;;36.03;;
50012;SDS011;35901;48.694;9.476;2023-02-10T01:48:21;81.93;;;34.87;;
50012;SDS011;35901;48.694;9.476;2023-02-10T01:50:53;84.77;;;37.40;;
50012;SDS011;35901;48.694;9.476;2023-02-10T01:53:28;70.80;;;32.10;;
50012;SDS011;35901;48.694;9.476;2023-02-10T01:55:55;84.00;;;36.90;;
50012;SDS011;35901;48.694;9.476;2023-02-10T01:58:25;65.27;;;29.30;;
50012;SDS011;35901;48.694;9.476;2023-02-10T02:00:53;83.60;;;36.37;;
50012;SDS011;35901;48.694;9.476;2023-02-10T02:03:18;69.63;;;33.73;;
50012;SDS011;35901;48.694;9.476;2023-02-10T02:05:44;92.53;;;38.50;;
50012;SDS011;35901;48.694;9.476;2023-02-10T02:11:04;73.97;;;33.97;;
50012;SDS011;35901;48.694;9.476;2023-02-10T02:13:50;88.73;;;38.47;;
50012;SDS011;35901;48.694;9.476;2023-02-10T02:19:43;77.80;;;36.30;;
50012;SDS011;35901;48.694;9.476;2023-02-10T02:28:08;77.37;;;34.23;;
50012;SDS011;35901;48.694;9.476;2023-02-10T02:33:49;63.60;;;29.73;;
50012;SDS011;35901;48.694;9.476;2023-02-10T02:36:22;76.67;;;35.53;;
50012;SDS011;35901;48.694;9.476;2023-02-10T02:39:11;71.87;;;34.40;;
50012;SDS011;35901;48.694;9.476;2023-02-10T02:41:36;60.60;;;30.90;;
50012;SDS011;35901;48.694;9.476;2023-02-10T02:44:04;57.93;;;28.03;;
50012;SDS011;35901;48.694;9.476;2023-02-10T02:46:47;67.57;;;30.10;;
50012;SDS011;35901;48.694;9.476;2023-02-10T02:49:29;49.97;;;24.47;;
50012;SDS011;35901;48.694;9.476;2023-02-10T02:52:08;56.50;;;28.33;;
50012;SDS011;35901;48.694;9.476;2023-02-10T02:54:42;68.00;;;32.90;;
50012;SDS011;35901;48.694;9.476;2023-02-10T03:02:15;73.73;;;33.10;;
50012;SDS011;35901;48.694;9.476;2023-02-10T03:04:44;68.83;;;32.80;;
50012;SDS011;35901;48.694;9.476;2023-02-10T03:07:11;72.50;;;33.77;;
50012;SDS011;35901;48.694;9.476;2023-02-10T03:09:37;75.77;;;33.13;;
50012;SDS011;35901;48.694;9.476;2023-02-10T03:12:03;57.53;;;28.10;;
50012;SDS011;35901;48.694;9.476;2023-02-10T03:14:29;66.53;;;32.23;;
50012;SDS011;35901;48.694;9.476;2023-02-10T03:16:55;81.93;;;36.50;;
50012;SDS011;35901;48.694;9.476;2023-02-10T03:19:21;68.47;;;34.17;;
50012;SDS011;35901;48.694;9.476;2023-02-10T03:21:46;86.53;;;37.87;;
50012;SDS011;35901;48.694;9.476;2023-02-10T03:24:12;80.23;;;35.83;;
50012;SDS011;35901;48.694;9.476;2023-02-10T03:26:38;71.40;;;32.80;;
50012;SDS011;35901;48.694;9.476;2023-02-10T03:29:04;78.13;;;34.70;;
50012;SDS011;35901;48.694;9.476;2023-02-10T03:31:31;67.20;;;32.40;;
50012;SDS011;35901;48.694;9.476;2023-02-10T03:33:57;67.03;;;32.83;;
50012;SDS011;35901;48.694;9.476;2023-02-10T03:36:23;69.93;;;34.03;;
50012;SDS011;35901;48.694;9.476;2023-02-10T03:38:49;64.43;;;31.33;;
50012;SDS011;35901;48.694;9.476;2023-02-10T03:41:14;70.20;;;32.73;;
50012;SDS011;35901;48.694;9.476;2023-02-10T03:43:40;65.20;;;32.97;;
50012;SDS011;35901;48.694;9.476;2023-02-10T03:46:08;62.93;;;31.33;;
50012;SDS011;35901;48.694;9.476;2023-02-10T03:48:34;62.63;;;32.07;;
50012;SDS011;35901;48.694;9.476;2023-02-10T03:51:01;69.00;;;32.93;;
50012;SDS011;35901;48.694;9.476;2023-02-10T03:53:29;65.30;;;32.23;;
50012;SDS011;35901;48.694;9.476;2023-02-10T03:55:56;64.00;;;32.03;;
50012;SDS011;35901;48.694;9.476;2023-02-10T03:58:22;63.80;;;31.20;;
50012;SDS011;35901;48.694;9.476;2023-02-10T04:00:48;64.57;;;31.27;;
50012;SDS011;35901;48.694;9.476;2023-02-10T04:03:14;65.37;;;32.97;;
50012;SDS011;35901;48.694;9.476;2023-02-10T04:05:40;66.13;;;33.97;;
50012;SDS011;35901;48.694;9.476;2023-02-10T04:08:06;59.93;;;31.27;;
50012;SDS011;35901;48.694;9.476;2023-02-10T04:10:32;60.57;;;30.33;;
50012;SDS011;35901;48.694;9.476;2023-02-10T04:12:58;58.23;;;30.07;;
50012;SDS011;35901;48.694;9.476;2023-02-10T04:15:23;61.27;;;29.20;;
50012;SDS011;35901;48.694;9.476;2023-02-10T04:17:49;61.93;;;29.67;;
50012;SDS011;35901;48.694;9.476;2023-02-10T04:20:15;54.10;;;25.43;;
50012;SDS011;35901;48.694;9.476;2023-02-10T04:22:41;53.83;;;26.67;;
50012;SDS011;35901;48.694;9.476;2023-02-10T04:25:07;63.77;;;31.20;;
50012;SDS011;35901;48.694;9.476;2023-02-10T04:27:33;59.73;;;28.33;;
50012;SDS011;35901;48.694;9.476;2023-02-10T04:29:58;66.57;;;29.27;;
50012;SDS011;35901;48.694;9.476;2023-02-10T04:32:27;70.17;;;31.57;;
50012;SDS011;35901;48.694;9.476;2023-02-10T04:34:53;69.93;;;30.33;;
50012;SDS011;35901;48.694;9.476;2023-02-10T04:37:21;67.60;;;29.33;;
50012;SDS011;35901;48.694;9.476;2023-02-10T04:39:47;57.73;;;29.10;;
50012;SDS011;35901;48.694;9.476;2023-02-10T04:42:13;53.23;;;25.13;;
50012;SDS011;35901;48.694;9.476;2023-02-10T04:44:38;62.90;;;28.27;;
50012;SDS011;35901;48.694;9.476;2023-02-10T04:47:04;66.13;;;31.07;;
50012;SDS011;35901;48.694;9.476;2023-02-10T04:49:30;71.63;;;30.27;;
50012;SDS011;35901;48.694;9.476;2023-02-10T04:51:55;68.63;;;29.73;;
50012;SDS011;35901;48.694;9.476;2023-02-10T04:54:21;67.63;;;28.53;;
50012;SDS011;35901;48.694;9.476;2023-02-10T04:56:48;51.47;;;23.37;;
50012;SDS011;35901;48.694;9.476;2023-02-10T04:59:14;67.87;;;29.00;;
50012;SDS011;35901;48.694;9.476;2023-02-10T05:01:41;63.83;;;29.70;;
50012;SDS011;35901;48.694;9.476;2023-02-10T05:04:07;73.07;;;30.77;;
50012;SDS011;35901;48.694;9.476;2023-02-10T05:06:33;72.13;;;32.53;;
50012;SDS011;35901;48.694;9.476;2023-02-10T05:08:58;77.23;;;31.73;;
50012;SDS011;35901;48.694;9.476;2023-02-10T05:11:24;77.43;;;30.57;;
50012;SDS011;35901;48.694;9.476;2023-02-10T05:13:50;50.60;;;22.47;;
50012;SDS011;35901;48.694;9.476;2023-02-10T05:16:16;60.53;;;26.47;;
50012;SDS011;35901;48.694;9.476;2023-02-10T05:18:42;74.10;;;30.33;;
50012;SDS011;35901;48.694;9.476;2023-02-10T05:21:08;71.70;;;31.80;;
50012;SDS011;35901;48.694;9.476;2023-02-10T05:23:36;68.80;;;31.37;;
50012;SDS011;35901;48.694;9.476;2023-02-10T05:26:02;70.83;;;31.50;;
50012;SDS011;35901;48.694;9.476;2023-02-10T05:28:28;65.27;;;30.23;;
50012;SDS011;35901;48.694;9.476;2023-02-10T05:30:53;50.50;;;26.83;;
50012;SDS011;35901;48.694;9.476;2023-02-10T05:33:19;71.63;;;30.83;;
50012;SDS011;35901;48.694;9.476;2023-02-10T05:35:45;69.80;;;32.37;;
50012;SDS011;35901;48.694;9.476;2023-02-10T05:38:11;49.70;;;23.23;;
50012;SDS011;35901;48.694;9.476;2023-02-10T05:40:37;55.43;;;26.80;;
50012;SDS011;35901;48.694;9.476;2023-02-10T05:43:03;66.40;;;30.33;;
50012;SDS011;35901;48.694;9.476;2023-02-10T05:45:29;83.40;;;37.70;;
50012;SDS011;35901;48.694;9.476;2023-02-10T05:47:55;85.03;;;38.53;;
50012;SDS011;35901;48.694;9.476;2023-02-10T05:50:20;87.77;;;38.70;;
50012;SDS011;35901;48.694;9.476;2023-02-10T05:52:46;84.57;;;36.93;;
50012;SDS011;35901;48.694;9.476;2023-02-10T05:55:13;88.20;;;37.87;;
50012;SDS011;35901;48.694;9.476;2023-02-10T05:57:39;80.07;;;38.23;;
50012;SDS011;35901;48.694;9.476;2023-02-10T06:00:05;89.13;;;37.53;;
50012;SDS011;35901;48.694;9.476;2023-02-10T06:02:37;85.90;;;36.83;;
50012;SDS011;35901;48.694;9.476;2023-02-10T06:05:03;77.40;;;34.37;;
50012;SDS011;35901;48.694;9.476;2023-02-10T06:07:29;86.77;;;37.03;;
50012;SDS011;35901;48.694;9.476;2023-02-10T06:09:55;72.80;;;33.30;;
50012;SDS011;35901;48.694;9.476;2023-02-10T06:12:20;73.43;;;32.53;;
50012;SDS011;35901;48.694;9.476;2023-02-10T06:14:46;82.63;;;32.33;;
50012;SDS011;35901;48.694;9.476;2023-02-10T06:17:11;71.37;;;31.63;;
50012;SDS011;35901;48.694;9.476;2023-02-10T06:19:38;75.60;;;33.83;;
50012;SDS011;35901;48.694;9.476;2023-02-10T06:22:05;72.20;;;32.57;;
50012;SDS011;35901;48.694;9.476;2023-02-10T06:24:32;64.60;;;30.80;;
50012;SDS011;35901;48.694;9.476;2023-02-10T06:26:57;75.67;;;33.07;;
50012;SDS011;35901;48.694;9.476;2023-02-10T06:29:23;60.37;;;26.93;;
50012;SDS011;35901;48.694;9.476;2023-02-10T06:31:49;75.00;;;35.10;;
50012;SDS011;35901;48.694;9.476;2023-02-10T06:34:15;74.23;;;32.13;;
50012;SDS011;35901;48.694;9.476;2023-02-10T06:36:41;77.73;;;34.13;;
50012;SDS011;35901;48.694;9.476;2023-02-10T06:39:06;70.33;;;31.00;;
50012;SDS011;35901;48.694;9.476;2023-02-10T06:41:32;75.87;;;33.20;;
50012;SDS011;35901;48.694;9.476;2023-02-10T06:43:58;79.07;;;33.60;;
50012;SDS011;35901;48.694;9.476;2023-02-10T06:46:24;85.37;;;35.90;;
50012;SDS011;35901;48.694;9.476;2023-02-10T06:48:50;76.13;;;31.50;;
50012;SDS011;35901;48.694;9.476;2023-02-10T06:51:15;59.73;;;27.97;;
50012;SDS011;35901;48.694;9.476;2023-02-10T06:53:42;71.13;;;32.33;;
50012;SDS011;35901;48.694;9.476;2023-02-10T06:56:08;83.53;;;35.53;;
50012;SDS011;35901;48.694;9.476;2023-02-10T06:58:35;83.13;;;38.27;;
50012;SDS011;35901;48.694;9.476;2023-02-10T07:01:00;89.33;;;38.90;;
50012;SDS011;35901;48.694;9.476;2023-02-10T07:03:31;72.60;;;33.33;;
50012;SDS011;35901;48.694;9.476;2023-02-10T07:05:56;68.67;;;32.53;;
50012;SDS011;35901;48.694;9.476;2023-02-10T07:08:25;73.43;;;33.63;;
50012;SDS011;35901;48.694;9.476;2023-02-10T07:10:50;68.27;;;33.00;;
50012;SDS011;35901;48.694;9.476;2023-02-10T07:13:16;70.07;;;34.97;;
50012;SDS011;35901;48.694;9.476;2023-02-10T07:15:42;65.07;;;31.87;;
50012;SDS011;35901;48.694;9.476;2023-02-10T07:18:07;69.63;;;35.50;;
50012;SDS011;35901;48.694;9.476;2023-02-10T07:20:33;69.40;;;35.77;;
50012;SDS011;35901;48.694;9.476;2023-02-10T07:22:59;64.80;;;33.53;;
50012;SDS011;35901;48.694;9.476;2023-02-10T07:25:24;57.60;;;29.87;;
50012;SDS011;35901;48.694;9.476;2023-02-10T07:27:50;63.80;;;33.50;;
50012;SDS011;35901;48.694;9.476;2023-02-10T07:30:16;53.13;;;29.70;;
50012;SDS011;35901;48.694;9.476;2023-02-10T07:32:41;50.07;;;28.33;;
50012;SDS011;35901;48.694;9.476;2023-02-10T07:35:09;52.63;;;28.13;;
50012;SDS011;35901;48.694;9.476;2023-02-10T07:37:38;45.43;;;26.83;;
50012;SDS011;35901;48.694;9.476;2023-02-10T07:40:04;47.47;;;27.33;;
50012;SDS011;35901;48.694;9.476;2023-02-10T07:42:30;54.47;;;29.30;;
50012;SDS011;35901;48.694;9.476;2023-02-10T07:45:15;47.53;;;27.93;;
50012;SDS011;35901;48.694;9.476;2023-02-10T07:47:41;49.03;;;30.33;;
50012;SDS011;35901;48.694;9.476;2023-02-10T07:50:06;56.10;;;30.47;;
50012;SDS011;35901;48.694;9.476;2023-02-10T07:52:32;49.67;;;30.20;;
50012;SDS011;35901;48.694;9.476;2023-02-10T07:54:58;53.93;;;31.20;;
50012;SDS011;35901;48.694;9.476;2023-02-10T07:57:27;51.00;;;29.37;;
50012;SDS011;35901;48.694;9.476;2023-02-10T07:59:54;50.63;;;29.57;;
50012;SDS011;35901;48.694;9.476;2023-02-10T08:02:20;50.50;;;29.30;;
50012;SDS011;35901;48.694;9.476;2023-02-10T08:04:46;49.97;;;29.80;;
50012;SDS011;35901;48.694;9.476;2023-02-10T08:07:11;47.77;;;29.33;;
50012;SDS011;35901;48.694;9.476;2023-02-10T08:09:40;47.07;;;29.47;;
50012;SDS011;35901;48.694;9.476;2023-02-10T08:12:06;46.47;;;28.20;;
50012;SDS011;35901;48.694;9.476;2023-02-10T08:14:33;45.87;;;29.07;;
50012;SDS011;35901;48.694;9.476;2023-02-10T08:16:59;40.43;;;25.43;;
50012;SDS011;35901;48.694;9.476;2023-02-10T08:19:25;39.10;;;25.87;;
50012;SDS011;35901;48.694;9.476;2023-02-10T08:21:51;40.70;;;26.50;;
50012;SDS011;35901;48.694;9.476;2023-02-10T08:24:17;38.73;;;25.67;;
50012;SDS011;35901;48.694;9.476;2023-02-10T08:26:42;44.33;;;29.80;;
50012;SDS011;35901;48.694;9.476;2023-02-10T08:29:09;44.00;;;28.03;;
50012;SDS011;35901;48.694;9.476;2023-02-10T08:31:37;38.90;;;25.67;;
50012;SDS011;35901;48.694;9.476;2023-02-10T08:34:03;36.60;;;26.23;;
50012;SDS011;35901;48.694;9.476;2023-02-10T08:36:29;36.97;;;24.00;;
50012;SDS011;35901;48.694;9.476;2023-02-10T08:38:56;37.30;;;25.40;;
50012;SDS011;35901;48.694;9.476;2023-02-10T08:41:22;39.00;;;25.47;;
50012;SDS011;35901;48.694;9.476;2023-02-10T08:43:48;37.17;;;24.93;;
50012;SDS011;35901;48.694;9.476;2023-02-10T08:46:14;34.17;;;23.77;;
50012;SDS011;35901;48.694;9.476;2023-02-10T08:48:40;32.73;;;23.30;;
50012;SDS011;35901;48.694;9.476;2023-02-10T08:51:06;33.10;;;23.43;;
50012;SDS011;35901;48.694;9.476;2023-02-10T09:17:10;39.67;;;28.03;;
50012;SDS011;35901;48.694;9.476;2023-02-10T09:19:37;40.93;;;28.50;;
50012;SDS011;35901;48.694;9.476;2023-02-10T09:22:04;37.07;;;26.67;;
50012;SDS011;35901;48.694;9.476;2023-02-10T09:24:30;38.60;;;26.67;;
50012;SDS011;35901;48.694;9.476;2023-02-10T09:26:56;32.63;;;25.20;;
50012;SDS011;35901;48.694;9.476;2023-02-10T09:29:22;34.93;;;25.33;;
50012;SDS011;35901;48.694;9.476;2023-02-10T09:31:48;33.07;;;24.77;;
50012;SDS011;35901;48.694;9.476;2023-02-10T09:34:13;33.27;;;25.10;;
50012;SDS011;35901;48.694;9.476;2023-02-10T09:36:39;31.87;;;23.60;;
50012;SDS011;35901;48.694;9.476;2023-02-10T09:39:05;32.53;;;23.87;;
50012;SDS011;35901;48.694;9.476;2023-02-10T09:44:11;32.30;;;24.03;;
50012;SDS011;35901;48.694;9.476;2023-02-10T09:49:30;30.03;;;24.10;;
50012;SDS011;35901;48.694;9.476;2023-02-10T09:54:50;31.23;;;23.50;;
50012;SDS011;35901;48.694;9.476;2023-02-10T09:57:17;30.10;;;23.53;;
50012;SDS011;35901;48.694;9.476;2023-02-10T09:59:47;30.53;;;24.07;;
50012;SDS011;35901;48.694;9.476;2023-02-10T10:02:21;31.40;;;24.13;;
50012;SDS011;35901;48.694;9.476;2023-02-10T10:04:56;29.60;;;23.60;;
50012;SDS011;35901;48.694;9.476;2023-02-10T10:07:26;40.90;;;28.23;;
50012;SDS011;35901;48.694;9.476;2023-02-10T10:10:19;34.37;;;25.00;;
50012;SDS011;35901;48.694;9.476;2023-02-10T10:13:07;33.23;;;25.70;;
50012;SDS011;35901;48.694;9.476;2023-02-10T10:15:49;34.27;;;25.23;;
50012;SDS011;35901;48.694;9.476;2023-02-10T10:19:01;32.50;;;25.40;;
50012;SDS011;35901;48.694;9.476;2023-02-10T10:27:29;29.33;;;23.67;;
50012;SDS011;35901;48.694;9.476;2023-02-10T10:30:17;28.80;;;22.47;;
50012;SDS011;35901;48.694;9.476;2023-02-10T10:32:45;31.70;;;24.37;;
50012;SDS011;35901;48.694;9.476;2023-02-10T10:35:17;29.97;;;24.57;;
50012;SDS011;35901;48.694;9.476;2023-02-10T10:38:11;26.43;;;22.30;;
50012;SDS011;35901;48.694;9.476;2023-02-10T10:40:40;33.03;;;24.97;;
50012;SDS011;35901;48.694;9.476;2023-02-10T10:43:12;30.37;;;24.20;;
50012;SDS011;35901;48.694;9.476;2023-02-10T10:45:43;30.03;;;24.00;;
50012;SDS011;35901;48.694;9.476;2023-02-10T10:48:17;27.83;;;22.50;;
50012;SDS011;35901;48.694;9.476;2023-02-10T10:50:50;27.27;;;22.37;;
50012;SDS011;35901;48.694;9.476;2023-02-10T10:53:18;27.53;;;22.33;;
50012;SDS011;35901;48.694;9.476;2023-02-10T10:55:53;25.87;;;21.93;;
50012;SDS011;35901;48.694;9.476;2023-02-10T10:58:28;66.90;;;48.73;;
50012;SDS011;35901;48.694;9.476;2023-02-10T11:00:59;31.37;;;25.13;;
50012;SDS011;35901;48.694;9.476;2023-02-10T11:03:26;30.93;;;24.63;;
50012;SDS011;35901;48.694;9.476;2023-02-10T11:08:29;27.77;;;22.33;;
50012;SDS011;35901;48.694;9.476;2023-02-10T11:10:57;29.23;;;24.43;;
50012;SDS011;35901;48.694;9.476;2023-02-10T11:13:27;28.33;;;23.20;;
50012;SDS011;35901;48.694;9.476;2023-02-10T11:18:32;31.13;;;24.67;;
50012;SDS011;35901;48.694;9.476;2023-02-10T11:20:59;29.47;;;23.83;;
50012;SDS011;35901;48.694;9.476;2023-02-10T11:23:27;31.37;;;24.00;;
50012;SDS011;35901;48.694;9.476;2023-02-10T11:26:02;28.23;;;21.97;;
50012;SDS011;35901;48.694;9.476;2023-02-10T11:28:31;32.17;;;24.97;;
50012;SDS011;35901;48.694;9.476;2023-02-10T11:31:03;27.70;;;21.37;;
50012;SDS011;35901;48.694;9.476;2023-02-10T11:33:38;30.90;;;24.10;;
50012;SDS011;35901;48.694;9.476;2023-02-10T11:36:05;31.10;;;25.83;;
50012;SDS011;35901;48.694;9.476;2023-02-10T11:38:33;29.67;;;22.80;;
50012;SDS011;35901;48.694;9.476;2023-02-10T11:41:09;30.33;;;24.37;;
50012;SDS011;35901;48.694;9.476;2023-02-10T11:43:37;28.13;;;23.47;;
50012;SDS011;35901;48.694;9.476;2023-02-10T11:46:16;29.47;;;24.07;;
50012;SDS011;35901;48.694;9.476;2023-02-10T11:48:54;27.13;;;23.00;;
50012;SDS011;35901;48.694;9.476;2023-02-10T11:51:21;27.13;;;22.23;;
50012;SDS011;35901;48.694;9.476;2023-02-10T11:53:48;26.30;;;22.07;;
50012;SDS011;35901;48.694;9.476;2023-02-10T12:01:57;26.23;;;21.90;;
50012;SDS011;35901;48.694;9.476;2023-02-10T12:09:47;23.77;;;19.53;;
50012;SDS011;35901;48.694;9.476;2023-02-10T12:14:58;24.37;;;20.30;;
50012;SDS011;35901;48.694;9.476;2023-02-10T12:21:23;27.83;;;19.73;;
50012;SDS011;35901;48.694;9.476;2023-02-10T12:26:28;21.57;;;18.23;;
50012;SDS011;35901;48.694;9.476;2023-02-10T12:31:53;21.37;;;17.97;;
50012;SDS011;35901;48.694;9.476;2023-02-10T12:48:37;20.87;;;15.63;;
50012;SDS011;35901;48.694;9.476;2023-02-10T12:53:57;22.97;;;16.37;;
50012;SDS011;35901;48.694;9.476;2023-02-10T12:56:29;20.53;;;16.27;;
50012;SDS011;35901;48.694;9.476;2023-02-10T12:59:04;21.03;;;15.67;;
50012;SDS011;35901;48.694;9.476;2023-02-10T13:02:00;21.67;;;15.47;;
50012;SDS011;35901;48.694;9.476;2023-02-10T13:04:32;21.10;;;15.13;;
50012;SDS011;35901;48.694;9.476;2023-02-10T13:07:05;20.97;;;15.43;;
50012;SDS011;35901;48.694;9.476;2023-02-10T13:09:52;21.90;;;16.00;;
50012;SDS011;35901;48.694;9.476;2023-02-10T13:12:31;23.57;;;16.73;;
50012;SDS011;35901;48.694;9.476;2023-02-10T13:15:04;24.37;;;16.43;;
50012;SDS011;35901;48.694;9.476;2023-02-10T13:32:02;24.73;;;17.97;;
50012;SDS011;35901;48.694;9.476;2023-02-10T13:34:58;23.60;;;16.10;;
50012;SDS011;35901;48.694;9.476;2023-02-10T13:40:00;20.60;;;15.10;;
50012;SDS011;35901;48.694;9.476;2023-02-10T13:42:34;21.73;;;15.73;;
50012;SDS011;35901;48.694;9.476;2023-02-10T13:50:48;24.53;;;16.93;;
50012;SDS011;35901;48.694;9.476;2023-02-10T13:56:15;21.47;;;15.30;;
50012;SDS011;35901;48.694;9.476;2023-02-10T13:58:57;25.63;;;16.57;;
50012;SDS011;35901;48.694;9.476;2023-02-10T14:01:32;23.60;;;15.97;;
50012;SDS011;35901;48.694;9.476;2023-02-10T14:04:25;25.00;;;17.23;;
50012;SDS011;35901;48.694;9.476;2023-02-10T14:06:54;26.47;;;18.50;;
50012;SDS011;35901;48.694;9.476;2023-02-10T14:12:03;24.20;;;16.37;;
50012;SDS011;35901;48.694;9.476;2023-02-10T14:14:47;19.93;;;15.03;;
50012;SDS011;35901;48.694;9.476;2023-02-10T14:17:22;26.83;;;17.13;;
50012;SDS011;35901;48.694;9.476;2023-02-10T14:19:55;20.20;;;15.63;;
50012;SDS011;35901;48.694;9.476;2023-02-10T14:24:52;24.77;;;16.73;;
50012;SDS011;35901;48.694;9.476;2023-02-10T14:27:20;22.00;;;15.40;;
50012;SDS011;35901;48.694;9.476;2023-02-10T14:29:52;20.00;;;15.33;;
50012;SDS011;35901;48.694;9.476;2023-02-10T14:32:21;19.37;;;14.40;;
50012;SDS011;35901;48.694;9.476;2023-02-10T14:34:57;19.63;;;14.47;;
50012;SDS011;35901;48.694;9.476;2023-02-10T14:37:25;20.73;;;13.83;;
50012;SDS011;35901;48.694;9.476;2023-02-10T14:39:53;21.03;;;15.07;;
50012;SDS011;35901;48.694;9.476;2023-02-10T14:42:19;25.20;;;17.33;;
50012;SDS011;35901;48.694;9.476;2023-02-10T14:44:53;23.17;;;15.90;;
50012;SDS011;35901;48.694;9.476;2023-02-10T14:47:24;20.90;;;15.40;;
50012;SDS011;35901;48.694;9.476;2023-02-10T14:49:54;19.07;;;13.23;;
50012;SDS011;35901;48.694;9.476;2023-02-10T14:54:57;22.97;;;15.27;;
50012;SDS011;35901;48.694;9.476;2023-02-10T14:57:23;20.80;;;15.27;;
50012;SDS011;35901;48.694;9.476;2023-02-10T14:59:54;22.73;;;15.43;;
50012;SDS011;35901;48.694;9.476;2023-02-10T15:02:23;22.60;;;15.10;;
50012;SDS011;35901;48.694;9.476;2023-02-10T15:04:51;20.37;;;14.73;;
50012;SDS011;35901;48.694;9.476;2023-02-10T15:07:22;23.60;;;15.90;;
50012;SDS011;35901;48.694;9.476;2023-02-10T15:09:54;23.63;;;16.47;;
50012;SDS011;35901;48.694;9.476;2023-02-10T15:12:21;22.00;;;14.63;;
50012;SDS011;35901;48.694;9.476;2023-02-10T15:17:35;22.63;;;15.67;;
50012;SDS011;35901;48.694;9.476;2023-02-10T15:30:53;21.57;;;15.37;;
50012;SDS011;35901;48.694;9.476;2023-02-10T15:33:23;21.13;;;14.87;;
50012;SDS011;35901;48.694;9.476;2023-02-10T15:41:43;20.97;;;15.67;;
50012;SDS011;35901;48.694;9.476;2023-02-10T15:46:43;22.47;;;15.60;;
50012;SDS011;35901;48.694;9.476;2023-02-10T15:49:13;24.00;;;15.37;;
50012;SDS011;35901;48.694;9.476;2023-02-10T15:51:45;20.60;;;14.07;;
50012;SDS011;35901;48.694;9.476;2023-02-10T15:54:19;21.00;;;14.73;;
50012;SDS011;35901;48.694;9.476;2023-02-10T15:56:57;24.03;;;14.83;;
50012;SDS011;35901;48.694;9.476;2023-02-10T15:59:24;20.33;;;13.67;;
50012;SDS011;35901;48.694;9.476;2023-02-10T16:02:02;19.97;;;13.73;;
50012;SDS011;35901;48.694;9.476;2023-02-10T16:04:33;18.77;;;13.23;;
50012;SDS011;35901;48.694;9.476;2023-02-10T16:06:59;19.20;;;13.63;;
50012;SDS011;35901;48.694;9.476;2023-02-10T16:09:25;19.97;;;13.43;;
50012;SDS011;35901;48.694;9.476;2023-02-10T16:11:52;17.90;;;12.97;;
50012;SDS011;35901;48.694;9.476;2023-02-10T16:14:18;18.37;;;13.23;;
50012;SDS011;35901;48.694;9.476;2023-02-10T16:16:45;24.03;;;14.17;;
50012;SDS011;35901;48.694;9.476;2023-02-10T16:19:17;20.60;;;13.90;;
50012;SDS011;35901;48.694;9.476;2023-02-10T16:21:45;21.00;;;13.83;;
50012;SDS011;35901;48.694;9.476;2023-02-10T16:24:15;20.30;;;13.07;;
50012;SDS011;35901;48.694;9.476;2023-02-10T16:26:43;18.70;;;12.93;;
50012;SDS011;35901;48.694;9.476;2023-02-10T16:29:14;18.37;;;11.93;;
50012;SDS011;35901;48.694;9.476;2023-02-10T16:31:43;19.03;;;12.63;;
50012;SDS011;35901;48.694;9.476;2023-02-10T16:34:10;20.60;;;13.07;;
50012;SDS011;35901;48.694;9.476;2023-02-10T16:36:36;21.57;;;13.57;;
50012;SDS011;35901;48.694;9.476;2023-02-10T16:39:03;19.73;;;12.87;;
50012;SDS011;35901;48.694;9.476;2023-02-10T16:41:29;18.93;;;12.77;;
50012;SDS011;35901;48.694;9.476;2023-02-10T16:43:55;21.87;;;13.47;;
50012;SDS011;35901;48.694;9.476;2023-02-10T16:46:20;21.73;;;13.63;;
50012;SDS011;35901;48.694;9.476;2023-02-10T16:48:46;21.27;;;12.17;;
50012;SDS011;35901;48.694;9.476;2023-02-10T16:51:12;23.43;;;14.23;;
50012;SDS011;35901;48.694;9.476;2023-02-10T16:53:38;24.20;;;15.90;;
50012;SDS011;35901;48.694;9.476;2023-02-10T16:56:04;24.57;;;15.33;;
50012;SDS011;35901;48.694;9.476;2023-02-10T16:58:30;24.77;;;15.27;;
50012;SDS011;35901;48.694;9.476;2023-02-10T17:00:56;23.13;;;14.57;;
50012;SDS011;35901;48.694;9.476;2023-02-10T17:03:21;22.10;;;13.90;;
50012;SDS011;35901;48.694;9.476;2023-02-10T17:05:47;26.77;;;16.60;;
50012;SDS011;35901;48.694;9.476;2023-02-10T17:08:13;39.80;;;21.03;;
50012;SDS011;35901;48.694;9.476;2023-02-10T17:10:39;34.20;;;17.83;;